Time;durP1;ratioP1;P1;durP2;ratioP2;P2;SDS_P1;SDS_P2;PMS_P1;PMS_P2;Temp;Humidity;BMP_temperature;BMP_pressure;BME280_temperature;BME280_humidity;BME280_pressure;Samples;Min_cycle;Max_cycle;Signal;HPM_P1;HPM_P2
2022/05/04 00:01:43;;;;;;;7.00;1.75;;;14.70;72.20;;;;;;10428600;28;20064;-58
2022/05/04 00:06:45;;;;;;;5.32;1.55;;;14.60;72.30;;;;;;10432278;28;20110;-56
2022/05/04 00:11:47;;;;;;;3.33;1.58;;;14.50;72.60;;;;;;10430663;28;20057;-57
2022/05/04 00:16:48;;;;;;;4.45;1.48;;;14.50;73.10;;;;;;10431474;28;20389;-57
2022/05/04 00:21:50;;;;;;;5.65;1.70;;;14.50;74.10;;;;;;10431296;28;20057;-57
2022/05/04 00:26:52;;;;;;;3.15;1.98;;;14.40;73.80;;;;;;10428507;28;20045;-57
2022/05/04 00:31:53;;;;;;;2.70;1.60;;;14.40;74.00;;;;;;10429402;28;20049;-57
2022/05/04 00:36:59;;;;;;;3.40;1.50;;;14.40;74.50;;;;;;10430124;28;20061;-57
2022/05/04 00:42:12;;;;;;;5.28;1.90;;;14.40;74.10;;;;;;10429141;28;20514;-57
2022/05/04 00:47:14;;;;;;;4.43;1.58;;;14.30;74.90;;;;;;10429806;28;20118;-57
2022/05/04 00:52:17;;;;;;;3.67;1.55;;;14.20;75.30;;;;;;10430042;28;20057;-57
2022/05/04 01:02:41;;;;;;;3.03;1.38;;;14.10;76.80;;;;;;10424144;28;20057;-57
2022/05/04 01:07:45;;;;;;;4.95;1.63;;;14.00;77.00;;;;;;10427673;28;20114;-57
2022/05/04 01:12:51;;;;;;;2.35;1.30;;;13.90;77.50;;;;;;10427226;28;20053;-57
2022/05/04 01:17:53;;;;;;;4.97;1.67;;;13.80;78.40;;;;;;10428146;28;20052;-56
2022/05/04 01:22:55;;;;;;;3.33;1.83;;;13.80;78.80;;;;;;10409234;28;20142;-56
2022/05/04 01:27:57;;;;;;;7.55;1.42;;;13.70;80.40;;;;;;10423732;28;20487;-57
2022/05/04 01:32:59;;;;;;;5.53;1.88;;;13.70;80.80;;;;;;10427232;28;20114;-56
2022/05/04 01:38:01;;;;;;;3.90;2.25;;;13.60;82.60;;;;;;10424274;28;20052;-57
2022/05/04 01:43:03;;;;;;;9.95;2.25;;;13.40;84.40;;;;;;10428764;28;20057;-56
2022/05/04 01:48:05;;;;;;;4.80;1.95;;;13.30;86.10;;;;;;10427223;28;20056;-57
2022/05/04 01:53:06;;;;;;;4.75;2.28;;;13.20;86.90;;;;;;10424750;28;20142;-56
2022/05/04 01:58:11;;;;;;;3.55;1.80;;;13.20;88.20;;;;;;10426964;28;20061;-57
2022/05/04 02:03:13;;;;;;;4.20;2.13;;;13.10;88.60;;;;;;10426565;28;20057;-57
2022/05/04 02:08:15;;;;;;;3.45;2.03;;;13.00;90.10;;;;;;10426999;28;20052;-57
2022/05/04 02:13:16;;;;;;;5.28;2.60;;;12.90;90.60;;;;;;10425078;28;20065;-57
2022/05/04 02:18:21;;;;;;;4.25;2.20;;;12.80;91.70;;;;;;10410900;28;20053;-57
2022/05/04 02:23:23;;;;;;;3.45;2.17;;;12.80;92.60;;;;;;10427442;28;20376;-57
2022/05/04 02:28:24;;;;;;;4.10;2.42;;;12.70;93.20;;;;;;10432327;28;20111;-57
2022/05/04 02:33:26;;;;;;;5.30;2.25;;;12.70;93.70;;;;;;10433854;28;20479;-58
2022/05/04 02:38:28;;;;;;;2.58;2.03;;;12.70;95.00;;;;;;11102295;22;20052;-58
2022/05/04 02:43:30;;;;;;;8.82;2.90;;;12.70;95.00;;;;;;10432302;28;20045;-58
2022/05/04 02:48:32;;;;;;;3.58;2.20;;;12.70;95.20;;;;;;10434099;28;20107;-58
2022/05/04 02:53:34;;;;;;;3.35;2.15;;;12.60;95.40;;;;;;10432762;28;20045;-58
2022/05/04 02:58:36;;;;;;;4.07;2.15;;;12.60;95.70;;;;;;10432106;28;20545;-58
2022/05/04 03:03:38;;;;;;;6.40;2.72;;;12.60;95.90;;;;;;10429776;28;20041;-58
2022/05/04 03:08:40;;;;;;;3.83;2.42;;;12.60;95.50;;;;;;10430622;28;20114;-58
2022/05/04 03:13:41;;;;;;;4.70;3.10;;;12.60;96.00;;;;;;10433310;28;20103;-58
2022/05/04 03:18:43;;;;;;;7.70;2.63;;;12.60;96.80;;;;;;10419194;28;20103;-56
2022/05/04 03:23:45;;;;;;;6.90;3.08;;;12.50;97.40;;;;;;10433468;28;20057;-56
2022/05/04 03:28:47;;;;;;;5.60;2.72;;;12.50;98.40;;;;;;10433526;28;20061;-56
2022/05/04 03:33:49;;;;;;;5.65;3.03;;;12.50;99.10;;;;;;10429632;28;20053;-56
2022/05/04 03:38:51;;;;;;;4.97;2.97;;;12.40;99.50;;;;;;10391181;28;20046;-56
2022/05/04 03:43:53;;;;;;;9.10;3.78;;;12.30;99.70;;;;;;10350997;28;20065;-55
2022/05/04 03:48:57;;;;;;;8.05;3.13;;;12.40;99.90;;;;;;10355958;28;20053;-56
2022/05/04 03:53:59;;;;;;;6.40;2.78;;;12.30;99.90;;;;;;10352267;28;20066;-55
2022/05/04 03:59:01;;;;;;;7.30;3.17;;;12.30;99.90;;;;;;10348836;28;20115;-58
2022/05/04 04:04:04;;;;;;;5.72;2.65;;;12.30;99.90;;;;;;10353673;28;20428;-59
2022/05/04 04:09:05;;;;;;;4.50;2.78;;;12.40;99.90;;;;;;10351593;28;20062;-59
2022/05/04 04:14:08;;;;;;;7.05;2.80;;;12.40;99.90;;;;;;10353607;28;20049;-59
2022/05/04 04:19:10;;;;;;;5.38;2.97;;;12.40;99.90;;;;;;10357600;28;20112;-59
2022/05/04 04:24:11;;;;;;;6.68;3.00;;;12.40;99.90;;;;;;10353034;28;20054;-60
2022/05/04 04:29:13;;;;;;;8.63;3.50;;;12.50;99.90;;;;;;10352923;28;20502;-59
2022/05/04 04:34:15;;;;;;;8.07;2.72;;;12.50;99.90;;;;;;10339083;28;20079;-59
2022/05/04 04:39:16;;;;;;;5.80;3.35;;;12.50;99.90;;;;;;10358847;28;20065;-60
2022/05/04 04:44:18;;;;;;;6.50;3.35;;;12.50;99.90;;;;;;10339587;28;20101;-61
2022/05/04 04:49:20;;;;;;;4.45;2.92;;;12.50;99.90;;;;;;10332842;28;20116;-60
2022/05/04 04:54:21;;;;;;;6.38;3.10;;;12.50;99.90;;;;;;10350673;28;20043;-61
2022/05/04 04:59:23;;;;;;;8.38;2.67;;;12.60;99.90;;;;;;10354936;28;20053;-60
2022/05/04 05:04:24;;;;;;;5.68;3.10;;;12.60;99.90;;;;;;10336426;28;20594;-61
2022/05/04 05:09:26;;;;;;;7.57;3.35;;;12.70;99.90;;;;;;10350499;28;20069;-60
2022/05/04 05:19:48;;;;;;;6.32;3.55;;;12.80;99.90;;;;;;10344613;28;20069;-60
2022/05/04 05:24:50;;;;;;;6.00;3.60;;;12.90;99.90;;;;;;10355959;28;20055;-60
2022/05/04 05:29:52;;;;;;;8.40;3.45;;;12.90;99.90;;;;;;10354662;28;20054;-60
2022/05/04 05:34:54;;;;;;;8.23;4.00;;;12.90;99.90;;;;;;10327067;28;20046;-61
2022/05/04 05:39:56;;;;;;;11.07;3.35;;;13.00;99.90;;;;;;10355448;28;20045;-61
2022/05/04 05:44:58;;;;;;;6.32;2.75;;;13.10;99.90;;;;;;10358479;28;20054;-58
2022/05/04 05:49:59;;;;;;;7.05;2.90;;;13.20;99.90;;;;;;10356714;28;20580;-59
2022/05/04 05:55:06;;;;;;;4.20;2.63;;;13.20;98.50;;;;;;10353417;28;20076;-59
2022/05/04 06:00:09;;;;;;;5.38;2.75;;;13.30;97.20;;;;;;10339924;28;20050;-58
2022/05/04 06:05:11;;;;;;;6.20;3.10;;;13.30;97.00;;;;;;10356261;28;20058;-59
2022/05/04 06:10:12;;;;;;;6.20;2.65;;;13.30;96.70;;;;;;10354605;28;20057;-59
2022/05/04 06:15:17;;;;;;;6.28;2.97;;;13.40;96.50;;;;;;10365227;28;20062;-58
2022/05/04 06:20:19;;;;;;;8.30;3.10;;;13.50;96.50;;;;;;10337349;28;20131;-59
2022/05/04 06:25:20;;;;;;;5.57;3.10;;;13.50;97.00;;;;;;10358020;28;20050;-59
2022/05/04 06:35:42;;;;;;;6.60;2.58;;;13.60;96.60;;;;;;10359029;28;20049;-59
2022/05/04 06:40:45;;;;;;;6.65;2.70;;;13.60;96.00;;;;;;10359747;28;20057;-59
2022/05/04 06:45:47;;;;;;;8.15;3.17;;;13.70;97.80;;;;;;10351653;28;20054;-59
2022/05/04 06:50:49;;;;;;;8.95;2.40;;;13.90;97.00;;;;;;10356658;28;20969;-59
2022/05/04 06:55:50;;;;;;;5.35;2.90;;;14.00;96.50;;;;;;10358706;28;20057;-59
2022/05/04 07:00:52;;;;;;;11.60;3.50;;;14.00;93.70;;;;;;10359171;28;20069;-59
2022/05/04 07:05:54;;;;;;;7.13;2.80;;;14.00;93.60;;;;;;10345149;28;20117;-59
2022/05/04 07:10:56;;;;;;;6.90;2.85;;;14.10;92.40;;;;;;10348026;28;20053;-59
2022/05/04 07:15:57;;;;;;;5.53;2.47;;;14.30;93.90;;;;;;10329316;28;20115;-59
2022/05/04 07:20:59;;;;;;;5.25;2.60;;;14.60;93.90;;;;;;10355345;28;20535;-60
2022/05/04 07:26:01;;;;;;;7.10;2.75;;;14.80;92.20;;;;;;10355379;28;20100;-58
2022/05/04 07:31:03;;;;;;;5.15;2.42;;;15.00;90.90;;;;;;10351536;28;20068;-59
2022/05/04 07:36:05;;;;;;;6.28;2.72;;;15.20;92.00;;;;;;10355165;28;20061;-59
2022/05/04 07:46:27;;;;;;;11.27;3.03;;;15.20;90.80;;;;;;10352702;28;20049;-58
2022/05/04 07:51:29;;;;;;;6.53;3.42;;;15.40;91.30;;;;;;10349759;28;20101;-58
2022/05/04 07:56:31;;;;;;;5.30;2.88;;;15.70;91.90;;;;;;10346431;28;20104;-59
2022/05/04 08:06:52;;;;;;;6.88;3.42;;;16.20;86.70;;;;;;10363636;28;20054;-59
2022/05/04 08:11:54;;;;;;;5.75;3.28;;;16.60;85.90;;;;;;10358667;28;20058;-59
2022/05/04 08:16:56;;;;;;;8.02;3.28;;;16.90;84.10;;;;;;10367645;28;20092;-59
2022/05/04 08:21:58;;;;;;;7.03;3.35;;;17.20;80.50;;;;;;10354941;28;20049;-59
2022/05/04 08:26:59;;;;;;;6.75;3.40;;;17.50;78.30;;;;;;10343462;28;20060;-59
2022/05/04 08:32:01;;;;;;;6.80;3.00;;;17.80;78.50;;;;;;10365433;28;20092;-59
2022/05/04 08:37:04;;;;;;;4.38;3.00;;;17.90;75.90;;;;;;10354944;28;20056;-59
2022/05/04 08:42:06;;;;;;;7.75;3.33;;;17.90;74.50;;;;;;10357368;28;20061;-59
2022/05/04 08:47:13;;;;;;;10.02;3.63;;;18.10;73.50;;;;;;10352926;28;20058;-59
2022/05/04 08:52:15;;;;;;;9.63;3.13;;;18.00;70.90;;;;;;10354048;28;20057;-59
2022/05/04 08:57:17;;;;;;;6.97;3.45;;;17.90;71.80;;;;;;10357619;28;20049;-59
2022/05/04 09:02:19;;;;;;;4.25;2.78;;;17.90;72.30;;;;;;10341014;28;20139;-58
2022/05/04 09:07:25;;;;;;;5.13;2.78;;;17.90;75.00;;;;;;10352640;28;20053;-59
2022/05/04 09:12:33;;;;;;;7.50;2.42;;;17.90;75.80;;;;;;10346760;28;20062;-59
2022/05/04 09:17:35;;;;;;;7.15;3.75;;;18.10;75.70;;;;;;10352091;28;20053;-58
2022/05/04 09:22:36;;;;;;;5.50;2.72;;;18.20;73.20;;;;;;10353229;28;20054;-59
2022/05/04 09:27:39;;;;;;;10.77;3.30;;;18.20;73.60;;;;;;10352073;28;20604;-59
2022/05/04 09:32:41;;;;;;;5.85;3.63;;;18.00;68.50;;;;;;10361060;28;20058;-59
2022/05/04 09:48:32;;;;;;;5.45;3.13;;;18.60;67.50;;;;;;10352017;28;20045;-59
2022/05/04 09:53:36;;;;;;;7.78;3.28;;;18.60;68.00;;;;;;10347761;28;20057;-59
2022/05/04 09:58:38;;;;;;;7.10;3.67;;;18.80;67.40;;;;;;10352681;28;20057;-59
2022/05/04 10:03:40;;;;;;;8.90;3.65;;;18.80;66.70;;;;;;10352751;28;20054;-59
2022/05/04 10:08:42;;;;;;;4.88;3.20;;;19.00;66.90;;;;;;10343935;28;20058;-59
2022/05/04 10:13:44;;;;;;;6.88;3.20;;;19.10;67.70;;;;;;10344139;28;20053;-58
2022/05/04 10:18:48;;;;;;;7.05;3.60;;;19.40;68.50;;;;;;10347418;28;20120;-58
2022/05/04 10:24:02;;;;;;;6.78;4.00;;;19.50;66.80;;;;;;10354725;28;20062;-59
2022/05/04 10:35:09;;;;;;;7.25;4.35;;;20.10;64.50;;;;;;10344917;28;20056;-59
2022/05/04 10:40:11;;;;;;;6.53;3.40;;;20.60;63.40;;;;;;10348454;28;20115;-60
2022/05/04 10:45:13;;;;;;;7.68;4.28;;;21.00;61.30;;;;;;10357119;28;20064;-60
2022/05/04 10:50:18;;;;;;;6.95;4.18;;;21.30;60.40;;;;;;10365527;28;20061;-60
2022/05/04 10:55:19;;;;;;;8.07;4.45;;;21.60;59.80;;;;;;10365897;28;20496;-60
2022/05/04 11:00:21;;;;;;;9.40;4.20;;;21.80;59.70;;;;;;10347291;28;20081;-59
2022/05/04 11:05:23;;;;;;;7.40;4.18;;;22.10;58.00;;;;;;10358441;28;20069;-59
2022/05/04 11:10:25;;;;;;;9.05;3.83;;;22.30;58.10;;;;;;10351921;28;20116;-59
2022/05/04 11:15:28;;;;;;;6.63;3.55;;;22.30;58.80;;;;;;10359893;28;20061;-60
2022/05/04 11:20:30;;;;;;;7.70;4.68;;;22.40;58.00;;;;;;10360631;28;20560;-59
2022/05/04 11:25:32;;;;;;;7.07;3.63;;;22.30;56.90;;;;;;10355053;28;20046;-60
2022/05/04 11:30:33;;;;;;;7.28;3.30;;;22.80;57.30;;;;;;10367124;28;20057;-58
2022/05/04 11:35:35;;;;;;;7.13;4.03;;;23.00;58.40;;;;;;10349413;28;20099;-59
2022/05/04 11:40:44;;;;;;;7.20;3.70;;;23.10;56.80;;;;;;10355864;28;20054;-60
2022/05/04 11:45:49;;;;;;;6.03;2.92;;;23.30;57.00;;;;;;10359986;28;20568;-60
2022/05/04 11:50:52;;;;;;;9.43;3.65;;;23.60;55.20;;;;;;10360205;28;20088;-59
2022/05/04 11:55:54;;;;;;;9.85;3.58;;;23.80;55.00;;;;;;10363438;28;20069;-59
2022/05/04 12:00:56;;;;;;;6.70;3.38;;;23.70;51.40;;;;;;10353448;28;20052;-59
2022/05/04 12:06:00;;;;;;;9.80;3.00;;;24.00;52.90;;;;;;10355675;28;20073;-59
2022/05/04 12:11:03;;;;;;;5.35;2.70;;;24.00;52.50;;;;;;10355330;28;20101;-58
2022/05/04 12:16:06;;;;;;;7.35;3.17;;;24.40;51.90;;;;;;10334556;28;20125;-58
2022/05/04 12:21:13;;;;;;;7.55;3.50;;;24.00;51.10;;;;;;10347329;28;20050;-58
2022/05/04 12:26:15;;;;;;;4.22;2.60;;;23.40;53.40;;;;;;10344837;28;20467;-58
2022/05/04 12:36:41;;;;;;;5.55;2.05;;;22.30;57.00;;;;;;10344577;28;20050;-58
2022/05/04 12:41:44;;;;;;;3.28;2.10;;;21.60;60.40;;;;;;10347102;28;20264;-58
2022/05/04 12:46:53;;;;;;;6.00;2.10;;;21.20;62.80;;;;;;10350490;28;20578;-58
2022/05/04 12:51:56;;;;;;;3.22;2.10;;;21.40;64.30;;;;;;10349313;28;20111;-58
2022/05/04 12:56:57;;;;;;;4.35;2.08;;;21.50;62.10;;;;;;10353984;28;20056;-58
2022/05/04 13:02:00;;;;;;;7.53;2.97;;;22.00;59.60;;;;;;10358072;28;20065;-58
2022/05/04 13:07:02;;;;;;;4.13;1.67;;;22.30;58.10;;;;;;10346838;28;20060;-58
2022/05/04 13:12:05;;;;;;;3.58;1.20;;;22.80;55.40;;;;;;10345582;28;20064;-58
2022/05/04 13:17:07;;;;;;;2.83;1.75;;;23.00;55.30;;;;;;10359749;28;20140;-59
2022/05/04 13:22:09;;;;;;;2.63;1.65;;;23.40;53.50;;;;;;10343992;28;20050;-58
2022/05/04 13:27:11;;;;;;;4.80;1.40;;;23.80;50.20;;;;;;10348591;28;20654;-58
2022/05/04 13:32:12;;;;;;;3.63;1.63;;;23.80;52.20;;;;;;10351314;28;20168;-58
2022/05/04 13:37:14;;;;;;;4.60;2.05;;;23.80;52.40;;;;;;10344930;28;20068;-59
2022/05/04 13:42:16;;;;;;;4.85;2.00;;;24.40;51.80;;;;;;10348058;28;20064;-59
2022/05/04 13:47:18;;;;;;;2.10;1.55;;;24.50;51.50;;;;;;10343615;28;20058;-58
2022/05/04 13:57:40;;;;;;;1.40;1.08;;;25.10;50.00;;;;;;10352491;28;20050;-58
2022/05/04 14:02:41;;;;;;;2.50;1.40;;;25.20;50.10;;;;;;10351879;28;20377;-58
2022/05/04 14:07:43;;;;;;;3.33;1.67;;;25.40;49.60;;;;;;10351509;28;20061;-58
2022/05/04 14:12:45;;;;;;;2.58;1.80;;;25.60;48.80;;;;;;10347448;28;20049;-58
2022/05/04 14:17:47;;;;;;;2.40;1.60;;;25.70;49.90;;;;;;10338606;28;20057;-57
2022/05/04 14:22:49;;;;;;;1.67;1.33;;;25.70;48.10;;;;;;10345924;28;20058;-57
2022/05/04 14:27:53;;;;;;;7.40;1.35;;;25.20;47.50;;;;;;10356261;28;20057;-57
2022/05/04 14:32:58;;;;;;;2.92;1.33;;;24.70;47.70;;;;;;10359096;28;20057;-57
2022/05/04 14:38:00;;;;;;;2.28;1.23;;;24.60;49.80;;;;;;10356222;28;20065;-57
2022/05/04 14:43:02;;;;;;;5.53;1.77;;;24.20;50.20;;;;;;10363573;28;20058;-58
2022/05/04 14:48:04;;;;;;;2.90;1.30;;;23.90;49.90;;;;;;10365937;28;20080;-58
2022/05/04 14:53:05;;;;;;;2.72;1.90;;;23.50;50.00;;;;;;10354363;28;20550;-58
2022/05/04 14:58:07;;;;;;;2.40;1.25;;;23.00;51.00;;;;;;10352622;28;20129;-57
2022/05/04 15:08:29;;;;;;;3.33;1.88;;;22.90;53.60;;;;;;10348974;28;20049;-58
2022/05/04 15:13:31;;;;;;;2.22;1.90;;;22.60;52.70;;;;;;10351687;28;20053;-57
2022/05/04 15:18:34;;;;;;;2.45;1.33;;;22.60;54.30;;;;;;10345909;28;20057;-57
2022/05/04 15:23:35;;;;;;;5.88;1.25;;;22.50;54.90;;;;;;10360300;28;20046;-59
2022/05/04 15:28:42;;;;;;;2.78;1.27;;;22.40;56.10;;;;;;10350421;28;20045;-57
2022/05/04 15:33:44;;;;;;;3.85;1.50;;;22.20;54.40;;;;;;10352524;28;20104;-59
2022/05/04 15:38:45;;;;;;;3.17;1.20;;;22.10;55.60;;;;;;10338369;28;20057;-56
2022/05/04 15:43:47;;;;;;;5.38;1.80;;;22.00;54.90;;;;;;10354058;28;20396;-56
2022/05/04 15:48:50;;;;;;;4.15;1.50;;;21.90;56.40;;;;;;10349643;28;20152;-56
2022/05/04 15:53:56;;;;;;;3.83;1.55;;;22.00;56.00;;;;;;10341918;28;20050;-56
2022/05/04 15:58:58;;;;;;;3.25;1.85;;;22.10;55.00;;;;;;10345195;28;20480;-56
2022/05/04 16:04:02;;;;;;;4.03;1.67;;;22.00;55.50;;;;;;10348554;28;20053;-56
2022/05/04 16:09:08;;;;;;;1.95;1.27;;;22.00;55.60;;;;;;10356274;28;20492;-56
2022/05/04 16:14:10;;;;;;;2.03;1.38;;;22.10;56.50;;;;;;10335542;28;20050;-56
2022/05/04 16:24:33;;;;;;;6.68;1.20;;;21.90;56.30;;;;;;10346498;28;20054;-57
2022/05/04 16:29:35;;;;;;;2.83;1.50;;;21.80;57.80;;;;;;10354087;28;20062;-58
2022/05/04 16:34:37;;;;;;;1.60;1.10;;;21.70;57.70;;;;;;10349262;28;20054;-58
2022/05/04 16:39:39;;;;;;;2.58;1.40;;;21.50;57.10;;;;;;10345730;28;20050;-55
2022/05/04 16:44:40;;;;;;;1.73;1.40;;;21.40;57.70;;;;;;10337133;28;20463;-57
2022/05/04 16:49:45;;;;;;;2.78;1.30;;;21.20;57.50;;;;;;10343667;28;20058;-59
2022/05/04 16:54:47;;;;;;;4.60;1.75;;;21.00;57.80;;;;;;10348059;28;20053;-57
2022/05/04 16:59:49;;;;;;;4.95;1.65;;;20.50;59.10;;;;;;10348548;28;20168;-58
2022/05/04 17:04:50;;;;;;;2.08;1.73;;;20.50;59.90;;;;;;10352367;28;20050;-57
2022/05/04 17:09:52;;;;;;;4.18;1.80;;;20.40;60.30;;;;;;10346245;28;20112;-59
2022/05/04 17:14:54;;;;;;;3.08;1.50;;;20.30;58.90;;;;;;10357326;28;20467;-57
2022/05/04 17:19:57;;;;;;;5.72;2.05;;;20.00;59.70;;;;;;10353264;28;20083;-58
2022/05/04 17:24:59;;;;;;;2.75;1.70;;;19.70;63.30;;;;;;10350145;28;20074;-58
2022/05/04 17:30:01;;;;;;;6.75;2.90;;;19.30;68.10;;;;;;10347327;28;20057;-59
2022/05/04 17:40:23;;;;;;;6.57;2.92;;;18.70;71.80;;;;;;10343720;28;20085;-58
2022/05/04 17:45:27;;;;;;;6.30;2.95;;;18.60;71.00;;;;;;10348325;28;20060;-58
2022/05/04 17:50:28;;;;;;;6.40;2.97;;;18.50;70.70;;;;;;10355533;28;20057;-58
2022/05/04 17:55:31;;;;;;;4.85;2.92;;;18.50;69.40;;;;;;10344703;28;20054;-58
2022/05/04 18:00:33;;;;;;;6.05;2.72;;;18.30;69.80;;;;;;10352776;28;20049;-57
2022/05/04 18:05:35;;;;;;;5.13;3.47;;;18.40;68.20;;;;;;10354645;28;20493;-58
2022/05/04 18:10:37;;;;;;;5.55;3.28;;;18.30;70.70;;;;;;10354254;28;20049;-58
2022/05/04 18:15:39;;;;;;;6.10;3.30;;;18.10;75.90;;;;;;10355493;28;20107;-58
2022/05/04 18:20:41;;;;;;;6.72;3.78;;;17.70;80.00;;;;;;10362872;28;20062;-58
2022/05/04 18:25:42;;;;;;;5.25;3.40;;;17.50;80.80;;;;;;10354241;28;20104;-57
2022/05/04 18:30:46;;;;;;;8.38;4.03;;;17.40;83.00;;;;;;10357852;28;20054;-58
2022/05/04 18:35:48;;;;;;;5.97;4.07;;;17.10;86.90;;;;;;10351485;28;20502;-58
2022/05/04 18:40:49;;;;;;;4.68;3.13;;;17.00;93.30;;;;;;10359330;28;20061;-58
2022/05/04 18:45:51;;;;;;;6.65;3.50;;;17.00;89.50;;;;;;10363458;28;20610;-58
2022/05/04 18:50:55;;;;;;;5.63;3.45;;;17.00;90.60;;;;;;10348459;28;20061;-58
2022/05/04 18:55:57;;;;;;;6.78;3.00;;;17.00;91.00;;;;;;10355820;28;20049;-58
2022/05/04 19:01:00;;;;;;;5.57;3.13;;;17.00;87.10;;;;;;10355404;28;20050;-56
2022/05/04 19:06:03;;;;;;;5.00;3.30;;;17.00;87.60;;;;;;10354097;28;20420;-57
2022/05/04 19:11:09;;;;;;;8.65;4.13;;;16.90;84.70;;;;;;10329168;28;20070;-58
2022/05/04 19:16:11;;;;;;;9.10;3.63;;;16.80;84.90;;;;;;10355481;28;20049;-58
2022/05/04 19:21:15;;;;;;;6.53;4.72;;;16.80;89.10;;;;;;10331636;28;20398;-60
2022/05/04 19:26:17;;;;;;;7.75;3.78;;;16.60;93.20;;;;;;10325655;28;20103;-58
2022/05/04 19:31:19;;;;;;;7.85;4.85;;;16.50;97.50;;;;;;10355034;28;20054;-58
2022/05/04 19:36:21;;;;;;;7.15;4.75;;;16.30;99.90;;;;;;10356640;28;20054;-58
2022/05/04 19:41:23;;;;;;;8.07;4.38;;;16.20;99.90;;;;;;10353069;28;20116;-58
2022/05/04 19:46:25;;;;;;;6.25;4.28;;;16.10;99.60;;;;;;10358614;28;20053;-58
2022/05/04 19:51:27;;;;;;;13.10;5.03;;;16.00;99.90;;;;;;10356745;28;20053;-58
2022/05/04 19:56:31;;;;;;;6.30;4.68;;;16.00;99.50;;;;;;10362094;28;20050;-58
2022/05/04 20:01:32;;;;;;;5.93;4.38;;;15.90;99.90;;;;;;10331451;28;20096;-58
2022/05/04 20:06:34;;;;;;;7.55;4.50;;;15.90;99.90;;;;;;10359295;28;20070;-58
2022/05/04 20:11:36;;;;;;;7.75;4.45;;;15.80;99.90;;;;;;10351724;28;20057;-57
2022/05/04 20:16:39;;;;;;;7.68;4.47;;;15.80;99.90;;;;;;10305264;28;20050;-57
2022/05/04 20:21:41;;;;;;;5.55;4.05;;;15.70;99.90;;;;;;10339510;28;20053;-58
2022/05/04 20:27:07;;;;;;;8.10;4.60;;;15.60;99.90;;;;;;10334376;28;20057;-58
2022/05/04 20:32:09;;;;;;;8.35;4.95;;;15.50;99.90;;;;;;10328822;28;20116;-58
2022/05/04 20:37:14;;;;;;;12.18;5.78;;;15.40;99.90;;;;;;10349749;28;20412;-58
2022/05/04 20:42:15;;;;;;;8.00;5.88;;;15.30;99.90;;;;;;10360804;28;20116;-58
2022/05/04 20:47:17;;;;;;;10.23;5.53;;;15.20;99.90;;;;;;10334259;28;20053;-58
2022/05/04 20:52:20;;;;;;;7.85;5.45;;;15.00;99.90;;;;;;10328194;28;20049;-58
2022/05/04 20:57:23;;;;;;;14.82;5.63;;;15.00;99.90;;;;;;10357380;28;20132;-58
2022/05/04 21:02:24;;;;;;;9.80;5.85;;;14.90;99.90;;;;;;10334676;28;20087;-58
2022/05/04 21:07:27;;;;;;;9.65;5.63;;;14.90;99.90;;;;;;10348931;28;20066;-57
2022/05/04 21:12:34;;;;;;;10.18;5.90;;;14.80;99.90;;;;;;10355369;28;20054;-58
2022/05/04 21:17:36;;;;;;;9.45;5.75;;;14.80;99.90;;;;;;10329679;28;20690;-58
2022/05/04 21:22:58;;;;;;;11.43;6.68;;;14.80;99.90;;;;;;10330742;28;20228;-58
2022/05/04 21:28:00;;;;;;;8.35;5.57;;;14.70;99.90;;;;;;10340672;28;20061;-58
2022/05/04 21:33:02;;;;;;;10.77;5.82;;;14.70;99.90;;;;;;10332766;28;20054;-58
2022/05/04 21:38:04;;;;;;;10.77;6.38;;;14.60;99.90;;;;;;10322533;28;20487;-57
2022/05/04 21:43:05;;;;;;;9.50;6.00;;;14.60;99.90;;;;;;10342656;28;20500;-59
2022/05/04 21:48:09;;;;;;;10.82;6.07;;;14.60;99.90;;;;;;10335272;28;20062;-57
2022/05/04 21:53:13;;;;;;;11.55;6.45;;;14.60;99.90;;;;;;10347109;28;20447;-58
2022/05/04 21:58:18;;;;;;;9.60;6.18;;;14.50;99.90;;;;;;10353858;28;20550;-57
2022/05/04 22:03:22;;;;;;;15.38;6.20;;;14.40;99.90;;;;;;10341280;28;20058;-58
2022/05/04 22:08:24;;;;;;;15.45;5.90;;;14.40;99.90;;;;;;10341887;28;20085;-58
2022/05/04 22:18:46;;;;;;;11.32;6.53;;;14.30;99.90;;;;;;10354835;28;20688;-58
2022/05/04 22:23:48;;;;;;;10.35;6.32;;;14.20;99.90;;;;;;10352991;28;20484;-59
2022/05/04 22:28:50;;;;;;;11.25;6.30;;;14.20;99.90;;;;;;10342060;28;20053;-58
2022/05/04 22:33:54;;;;;;;12.35;6.55;;;14.20;99.90;;;;;;10345848;28;20058;-59
2022/05/04 22:38:55;;;;;;;12.70;6.82;;;14.20;99.90;;;;;;10351513;28;20076;-56
2022/05/04 22:43:57;;;;;;;10.98;6.38;;;14.10;99.90;;;;;;10337630;28;20112;-56
2022/05/04 22:48:59;;;;;;;10.38;6.22;;;14.10;99.90;;;;;;10356549;28;20487;-56
2022/05/04 22:54:00;;;;;;;9.55;6.28;;;14.10;99.90;;;;;;10359078;28;20054;-56
2022/05/04 22:59:02;;;;;;;8.95;5.93;;;14.00;99.90;;;;;;10351881;28;20066;-56
2022/05/04 23:04:04;;;;;;;14.55;7.03;;;13.90;99.90;;;;;;10355740;28;20137;-57
2022/05/04 23:09:05;;;;;;;14.00;6.63;;;13.80;99.90;;;;;;10364051;28;20060;-57
2022/05/04 23:14:07;;;;;;;13.40;6.25;;;13.90;99.90;;;;;;10356101;28;20058;-57
2022/05/04 23:19:09;;;;;;;8.98;5.82;;;13.90;99.90;;;;;;10348874;28;20057;-57
2022/05/04 23:24:11;;;;;;;9.70;5.45;;;13.90;99.90;;;;;;10352436;28;20496;-56
2022/05/04 23:29:12;;;;;;;9.82;6.20;;;14.00;99.90;;;;;;10346325;28;20053;-58
2022/05/04 23:34:14;;;;;;;12.70;6.63;;;14.00;99.90;;;;;;10355776;28;20053;-57
2022/05/04 23:39:16;;;;;;;14.02;6.30;;;14.00;99.90;;;;;;10354442;28;20061;-57
2022/05/04 23:44:18;;;;;;;11.85;6.57;;;14.00;99.90;;;;;;10349164;28;20058;-57
2022/05/04 23:49:21;;;;;;;16.23;7.00;;;14.00;99.90;;;;;;10355469;28;20120;-57
2022/05/04 23:54:23;;;;;;;11.07;6.45;;;14.10;99.90;;;;;;10357997;28;20068;-57
2022/05/04 23:59:25;;;;;;;13.07;6.03;;;14.10;99.90;;;;;;10358236;28;20057;-57
